createdAt,value
2017-12-06T00:00:01.128Z,13.80
2017-12-06T00:02:29.056Z,13.90
2017-12-06T00:04:56.929Z,12.20
2017-12-06T00:07:24.801Z,12.03
2017-12-06T00:09:52.682Z,12.33
2017-12-06T00:12:26.692Z,11.47
2017-12-06T00:15:01.801Z,12.17
2017-12-06T00:17:29.778Z,11.10
2017-12-06T00:19:57.654Z,9.93
2017-12-06T00:22:25.507Z,11.00
2017-12-06T00:24:53.448Z,10.33
2017-12-06T00:27:21.282Z,10.80
2017-12-06T00:29:49.132Z,9.60
2017-12-06T00:32:17.011Z,10.60
2017-12-06T00:34:44.901Z,10.30
2017-12-06T00:37:12.741Z,9.87
2017-12-06T00:39:40.603Z,10.10
2017-12-06T00:42:08.444Z,10.70
2017-12-06T00:44:36.288Z,10.97
2017-12-06T00:47:04.220Z,10.20
2017-12-06T00:49:32.232Z,11.47
2017-12-06T00:52:00.098Z,11.57
2017-12-06T00:54:27.995Z,11.27
2017-12-06T00:56:57.723Z,10.30
2017-12-06T00:59:25.771Z,11.00
2017-12-06T01:01:53.925Z,10.73
2017-12-06T01:04:23.828Z,11.83
2017-12-06T01:06:51.713Z,12.80
2017-12-06T01:09:19.660Z,11.20
2017-12-06T01:11:47.532Z,11.90
2017-12-06T01:14:17.540Z,12.93
2017-12-06T01:16:45.461Z,13.23
2017-12-06T01:19:13.304Z,11.90
2017-12-06T01:21:41.204Z,11.07
2017-12-06T01:24:09.065Z,11.90
2017-12-06T01:26:36.936Z,11.77
2017-12-06T01:29:04.787Z,11.30
2017-12-06T01:31:32.872Z,12.30
2017-12-06T01:34:00.738Z,12.83
2017-12-06T01:36:28.670Z,12.87
2017-12-06T01:38:56.525Z,11.10
2017-12-06T01:41:24.458Z,11.20
2017-12-06T01:43:52.442Z,11.17
2017-12-06T01:46:20.365Z,11.50
2017-12-06T01:48:48.468Z,11.40
2017-12-06T01:51:16.459Z,10.90
2017-12-06T01:53:45.292Z,12.70
2017-12-06T01:56:13.171Z,12.47
2017-12-06T01:58:41.072Z,13.50
2017-12-06T02:01:08.943Z,12.60
2017-12-06T02:03:36.833Z,13.17
2017-12-06T02:06:04.731Z,14.30
2017-12-06T02:08:32.799Z,14.63
2017-12-06T02:11:00.767Z,15.00
2017-12-06T02:13:28.636Z,13.93
2017-12-06T02:15:56.539Z,14.87
2017-12-06T02:18:24.395Z,14.70
2017-12-06T02:20:52.319Z,15.93
2017-12-06T02:23:20.228Z,14.40
2017-12-06T02:25:48.072Z,15.77
2017-12-06T02:28:15.908Z,15.50
2017-12-06T02:30:43.804Z,15.63
2017-12-06T02:33:11.672Z,14.53
2017-12-06T02:35:39.508Z,15.77
2017-12-06T02:38:07.608Z,16.97
2017-12-06T02:40:41.679Z,14.83
2017-12-06T02:43:15.781Z,13.50
2017-12-06T02:45:43.623Z,13.73
2017-12-06T02:48:11.487Z,13.20
2017-12-06T02:50:39.401Z,12.40
2017-12-06T02:53:07.237Z,13.00
2017-12-06T02:55:35.116Z,13.00
2017-12-06T02:58:03.055Z,12.30
2017-12-06T03:00:30.908Z,11.50
2017-12-06T03:02:58.768Z,12.20
2017-12-06T03:05:26.656Z,12.33
2017-12-06T03:07:54.567Z,11.77
2017-12-06T03:10:22.462Z,12.03
2017-12-06T03:12:50.346Z,12.10
2017-12-06T03:15:18.298Z,10.90
2017-12-06T03:17:46.141Z,11.93
2017-12-06T03:20:14.010Z,12.50
2017-12-06T03:22:41.862Z,12.10
2017-12-06T03:25:09.745Z,11.40
2017-12-06T03:27:37.601Z,13.43
2017-12-06T03:30:05.469Z,12.53
2017-12-06T03:32:33.381Z,12.57
2017-12-06T03:35:01.248Z,12.00
2017-12-06T03:37:29.186Z,12.90
2017-12-06T03:39:57.115Z,11.50
2017-12-06T03:42:24.969Z,11.57
2017-12-06T03:44:52.826Z,11.50
2017-12-06T03:47:20.773Z,11.60
2017-12-06T03:49:48.717Z,12.07
2017-12-06T03:52:16.577Z,12.10
2017-12-06T03:54:44.458Z,12.10
2017-12-06T03:57:12.329Z,13.37
2017-12-06T03:59:40.202Z,13.20
2017-12-06T04:02:08.068Z,11.27
2017-12-06T04:04:35.918Z,12.30
2017-12-06T04:07:03.797Z,12.33
2017-12-06T04:09:31.697Z,12.17
2017-12-06T04:11:59.555Z,12.87
2017-12-06T04:14:27.403Z,11.20
2017-12-06T04:16:55.292Z,11.50
2017-12-06T04:19:23.156Z,10.77
2017-12-06T04:21:51.001Z,10.77
2017-12-06T04:24:18.902Z,11.37
2017-12-06T04:26:46.783Z,11.93
2017-12-06T04:29:14.681Z,12.47
2017-12-06T04:31:42.554Z,12.70
2017-12-06T04:34:10.405Z,13.00
2017-12-06T04:36:38.285Z,13.70
2017-12-06T04:39:06.170Z,13.30
2017-12-06T04:41:34.061Z,13.43
2017-12-06T04:44:01.978Z,15.27
2017-12-06T04:46:29.881Z,13.87
2017-12-06T04:48:57.797Z,14.40
2017-12-06T04:51:25.656Z,13.47
2017-12-06T04:53:53.645Z,14.00
2017-12-06T04:56:21.515Z,12.50
2017-12-06T04:58:49.366Z,13.17
2017-12-06T05:01:17.249Z,12.73
2017-12-06T05:03:45.130Z,12.60
2017-12-06T05:06:12.985Z,12.27
2017-12-06T05:08:40.865Z,12.00
2017-12-06T05:11:08.728Z,12.73
2017-12-06T05:13:36.580Z,13.13
2017-12-06T05:16:04.449Z,13.70
2017-12-06T05:18:32.298Z,14.93
2017-12-06T05:21:00.177Z,14.00
2017-12-06T05:23:28.061Z,13.10
2017-12-06T05:25:55.920Z,13.30
2017-12-06T05:28:23.776Z,13.50
2017-12-06T05:30:51.672Z,13.30
2017-12-06T05:33:19.548Z,13.60
2017-12-06T05:35:47.399Z,13.73
2017-12-06T05:38:15.273Z,14.27
2017-12-06T05:40:43.096Z,14.30
2017-12-06T05:43:10.975Z,13.27
2017-12-06T05:45:38.856Z,14.53
2017-12-06T05:48:06.697Z,14.33
2017-12-06T05:50:34.524Z,14.50
2017-12-06T05:53:02.493Z,14.30
2017-12-06T05:55:30.326Z,13.90
2017-12-06T05:57:58.201Z,13.30
2017-12-06T06:00:26.067Z,13.40
2017-12-06T06:02:53.942Z,12.70
2017-12-06T06:05:21.858Z,13.03
2017-12-06T06:07:49.733Z,13.10
2017-12-06T06:10:17.589Z,13.20
2017-12-06T06:12:45.451Z,14.33
2017-12-06T06:15:13.325Z,13.43
2017-12-06T06:17:41.188Z,13.60
2017-12-06T06:20:09.032Z,13.73
2017-12-06T06:22:36.924Z,13.20
2017-12-06T06:25:04.771Z,12.77
2017-12-06T06:27:32.620Z,12.60
2017-12-06T06:30:00.526Z,13.30
2017-12-06T06:32:28.400Z,12.57
2017-12-06T06:34:56.245Z,12.73
2017-12-06T06:37:24.128Z,12.60
2017-12-06T06:39:51.990Z,13.10
2017-12-06T06:42:19.919Z,13.50
2017-12-06T06:44:47.801Z,13.03
2017-12-06T06:47:15.666Z,13.33
2017-12-06T06:49:43.533Z,13.13
2017-12-06T06:52:11.436Z,12.80
2017-12-06T06:54:39.291Z,13.60
2017-12-06T06:57:07.121Z,12.70
2017-12-06T06:59:35.223Z,13.20
2017-12-06T07:02:03.076Z,12.47
2017-12-06T07:04:30.939Z,13.40
2017-12-06T07:06:58.869Z,13.87
2017-12-06T07:09:26.749Z,13.50
2017-12-06T07:11:54.708Z,12.77
2017-12-06T07:14:22.589Z,12.37
2017-12-06T07:16:51.549Z,13.60
2017-12-06T07:19:19.422Z,12.70
2017-12-06T07:21:47.311Z,12.90
2017-12-06T07:24:15.421Z,13.00
2017-12-06T07:26:43.281Z,12.87
2017-12-06T07:29:11.185Z,13.40
2017-12-06T07:31:39.034Z,13.63
2017-12-06T07:34:06.931Z,13.07
2017-12-06T07:36:34.990Z,14.03
2017-12-06T07:39:02.904Z,14.50
2017-12-06T07:41:30.783Z,14.80
2017-12-06T07:43:58.740Z,16.30
2017-12-06T07:46:26.608Z,16.27
2017-12-06T07:48:54.479Z,16.03
2017-12-06T07:51:22.381Z,16.93
2017-12-06T07:53:50.272Z,16.07
2017-12-06T07:56:18.137Z,15.87
2017-12-06T07:58:46.018Z,15.63
2017-12-06T08:01:13.908Z,17.10
2017-12-06T08:03:41.760Z,16.50
2017-12-06T08:06:09.667Z,16.70
2017-12-06T08:08:37.520Z,17.10
2017-12-06T08:11:05.371Z,16.67
2017-12-06T08:13:33.265Z,18.30
2017-12-06T08:16:01.144Z,18.47
2017-12-06T08:18:29.009Z,18.63
2017-12-06T08:20:56.904Z,17.30
2017-12-06T08:23:24.757Z,17.60
2017-12-06T08:25:52.601Z,17.90
2017-12-06T08:28:20.464Z,16.93
2017-12-06T08:30:48.364Z,17.13
2017-12-06T08:33:16.287Z,17.17
2017-12-06T08:35:44.268Z,16.70
2017-12-06T08:38:12.185Z,17.60
2017-12-06T08:40:40.041Z,16.60
2017-12-06T08:43:07.937Z,18.40
2017-12-06T08:45:36.008Z,17.10
2017-12-06T08:48:03.914Z,16.17
2017-12-06T08:50:31.827Z,17.00
2017-12-06T08:52:59.706Z,17.00
2017-12-06T08:55:27.577Z,18.20
2017-12-06T08:57:55.482Z,17.13
2017-12-06T09:00:23.352Z,17.50
2017-12-06T09:02:51.232Z,17.37
2017-12-06T09:05:19.144Z,16.23
2017-12-06T09:07:47.029Z,17.10
2017-12-06T09:10:14.908Z,16.80
2017-12-06T09:12:42.794Z,16.97
2017-12-06T09:15:10.676Z,16.37
2017-12-06T09:17:38.533Z,15.83
2017-12-06T09:20:06.435Z,16.50
2017-12-06T09:22:34.312Z,16.13
2017-12-06T09:25:02.192Z,17.17
2017-12-06T09:27:30.132Z,14.47
2017-12-06T09:29:58.052Z,14.77
2017-12-06T09:32:25.914Z,16.63
2017-12-06T09:34:53.793Z,17.83
2017-12-06T09:37:21.695Z,16.43
2017-12-06T09:39:49.564Z,18.50
2017-12-06T09:42:17.469Z,18.73
2017-12-06T09:44:45.345Z,17.53
2017-12-06T09:47:13.224Z,16.60
2017-12-06T09:49:41.122Z,16.30
2017-12-06T09:52:09.145Z,15.60
2017-12-06T09:54:37.013Z,14.93
2017-12-06T09:57:04.930Z,15.77
2017-12-06T09:59:32.776Z,16.13
2017-12-06T10:02:00.660Z,16.40
2017-12-06T10:04:28.562Z,15.63
2017-12-06T10:06:56.599Z,16.93
2017-12-06T10:09:24.473Z,15.57
2017-12-06T10:11:52.372Z,14.83
2017-12-06T10:14:20.233Z,14.40
2017-12-06T10:16:49.259Z,13.90
2017-12-06T10:19:17.201Z,13.80
2017-12-06T10:21:45.123Z,14.83
2017-12-06T10:24:13.013Z,15.10
2017-12-06T10:26:40.905Z,14.17
2017-12-06T10:29:08.800Z,12.93
2017-12-06T10:31:36.841Z,13.83
2017-12-06T10:34:04.715Z,13.87
2017-12-06T10:36:32.610Z,14.60
2017-12-06T10:39:00.520Z,12.20
2017-12-06T10:41:28.421Z,17.20
2017-12-06T10:43:56.280Z,13.30
2017-12-06T10:46:24.257Z,15.23
2017-12-06T10:48:52.136Z,13.90
2017-12-06T10:51:19.984Z,14.40
2017-12-06T10:53:47.859Z,13.30
2017-12-06T10:56:15.753Z,13.60
2017-12-06T10:58:43.612Z,14.57
2017-12-06T11:01:11.470Z,15.37
2017-12-06T11:03:39.400Z,15.90
2017-12-06T11:06:07.345Z,13.30
2017-12-06T11:08:35.290Z,14.37
2017-12-06T11:11:03.184Z,13.13
2017-12-06T11:13:31.108Z,13.40
2017-12-06T11:15:58.976Z,14.50
2017-12-06T11:18:26.942Z,13.70
2017-12-06T11:20:54.879Z,14.07
2017-12-06T11:23:22.727Z,14.83
2017-12-06T11:25:50.620Z,12.90
2017-12-06T11:28:18.484Z,14.73
2017-12-06T11:30:46.392Z,13.37
2017-12-06T11:33:14.280Z,13.23
2017-12-06T11:35:42.124Z,12.90
2017-12-06T11:38:10.003Z,12.83
2017-12-06T11:40:37.913Z,12.63
2017-12-06T11:43:05.786Z,13.77
2017-12-06T11:45:33.689Z,13.73
2017-12-06T11:48:01.596Z,13.60
2017-12-06T11:50:29.469Z,14.17
2017-12-06T11:52:57.569Z,13.67
2017-12-06T11:55:25.457Z,13.27
2017-12-06T11:57:53.371Z,13.80
2017-12-06T12:00:21.265Z,13.80
2017-12-06T12:02:49.188Z,12.30
2017-12-06T12:05:18.109Z,12.90
2017-12-06T12:07:46.017Z,14.50
2017-12-06T12:10:13.956Z,14.77
2017-12-06T12:12:41.820Z,13.00
2017-12-06T12:15:09.751Z,12.20
2017-12-06T12:17:37.894Z,14.10
2017-12-06T12:20:05.773Z,12.83
2017-12-06T12:22:33.668Z,13.53
2017-12-06T12:25:01.575Z,12.70
2017-12-06T12:27:29.645Z,13.80
2017-12-06T12:29:57.524Z,14.43
2017-12-06T12:32:25.422Z,13.47
2017-12-06T12:34:53.296Z,13.53
2017-12-06T12:37:21.183Z,14.37
2017-12-06T12:39:49.112Z,14.20
2017-12-06T12:42:17.040Z,14.93
2017-12-06T12:44:44.908Z,13.80
2017-12-06T12:47:12.880Z,13.80
2017-12-06T12:49:40.783Z,13.43
2017-12-06T12:52:08.684Z,15.93
2017-12-06T12:54:36.643Z,14.47
2017-12-06T12:57:04.533Z,14.40
2017-12-06T12:59:32.388Z,15.63
2017-12-06T13:02:00.460Z,13.93
2017-12-06T13:04:28.325Z,15.10
2017-12-06T13:06:56.197Z,14.40
2017-12-06T13:09:24.097Z,13.60
2017-12-06T13:11:52.204Z,13.90
2017-12-06T13:14:20.092Z,14.47
2017-12-06T13:16:48.014Z,14.17
2017-12-06T13:19:15.877Z,14.97
2017-12-06T13:21:43.733Z,15.00
2017-12-06T13:24:11.637Z,15.60
2017-12-06T13:26:39.512Z,14.63
2017-12-06T13:29:08.345Z,13.80
2017-12-06T13:31:36.211Z,14.67
2017-12-06T13:34:04.107Z,15.30
2017-12-06T13:36:32.158Z,16.27
2017-12-06T13:39:00.072Z,14.07
2017-12-06T13:41:28.131Z,15.80
2017-12-06T13:43:56.002Z,14.50
2017-12-06T13:46:23.900Z,14.60
2017-12-06T13:48:51.808Z,14.07
2017-12-06T13:51:19.670Z,13.93
2017-12-06T13:53:47.586Z,13.50
2017-12-06T13:56:15.436Z,13.80
2017-12-06T13:58:43.354Z,12.53
2017-12-06T14:01:11.263Z,12.43
2017-12-06T14:03:39.227Z,13.10
2017-12-06T14:06:07.096Z,13.60
2017-12-06T14:08:35.004Z,13.37
2017-12-06T14:11:02.936Z,12.53
2017-12-06T14:13:30.799Z,13.17
2017-12-06T14:15:58.888Z,11.73
2017-12-06T14:18:26.742Z,12.17
2017-12-06T14:20:54.600Z,11.07
2017-12-06T14:23:22.564Z,10.87
2017-12-06T14:25:50.504Z,11.47
2017-12-06T14:28:18.515Z,10.20
2017-12-06T14:30:46.397Z,11.70
2017-12-06T14:33:14.255Z,11.90
2017-12-06T14:35:43.149Z,9.90
2017-12-06T14:38:11.062Z,10.13
2017-12-06T14:40:39.105Z,11.30
2017-12-06T14:43:07.003Z,10.60
2017-12-06T14:45:34.927Z,10.83
2017-12-06T14:48:02.861Z,11.33
2017-12-06T14:50:30.735Z,11.40
2017-12-06T14:52:58.738Z,11.00
2017-12-06T14:55:26.673Z,10.67
2017-12-06T14:57:56.445Z,11.90
2017-12-06T15:00:24.546Z,11.50
2017-12-06T15:02:52.897Z,11.57
2017-12-06T15:05:21.113Z,12.27
2017-12-06T15:07:49.176Z,11.07
2017-12-06T15:10:17.128Z,10.53
2017-12-06T15:12:48.877Z,10.80
2017-12-06T15:15:16.856Z,12.50
2017-12-06T15:17:44.905Z,10.97
2017-12-06T15:20:13.893Z,11.10
2017-12-06T15:22:42.020Z,10.30
2017-12-06T15:25:09.954Z,11.33
2017-12-06T15:27:38.392Z,10.67
2017-12-06T15:30:06.491Z,12.40
2017-12-06T15:32:34.556Z,12.10
2017-12-06T15:35:03.504Z,12.00
2017-12-06T15:37:31.843Z,11.90
2017-12-06T15:40:00.396Z,14.27
2017-12-06T15:42:28.659Z,12.40
2017-12-06T15:44:56.608Z,12.90
2017-12-06T15:47:24.509Z,12.10
2017-12-06T15:49:52.424Z,11.43
2017-12-06T15:52:20.323Z,12.70
2017-12-06T15:54:48.282Z,12.23
2017-12-06T15:57:16.170Z,12.10
2017-12-06T15:59:44.055Z,12.50
2017-12-06T16:02:11.979Z,12.37
2017-12-06T16:04:39.880Z,12.73
2017-12-06T16:07:07.755Z,12.53
2017-12-06T16:09:36.097Z,11.77
2017-12-06T16:12:04.078Z,12.03
2017-12-06T16:14:32.092Z,13.20
2017-12-06T16:16:59.993Z,12.40
2017-12-06T16:19:27.965Z,12.70
2017-12-06T16:21:55.845Z,12.40
2017-12-06T16:24:23.693Z,12.03
2017-12-06T16:26:51.567Z,9.90
2017-12-06T16:29:19.501Z,10.20
2017-12-06T16:31:47.389Z,10.87
2017-12-06T16:34:15.405Z,10.10
2017-12-06T16:36:49.556Z,9.50
2017-12-06T16:39:17.504Z,9.40
2017-12-06T16:41:45.407Z,10.23
2017-12-06T16:44:13.414Z,10.33
2017-12-06T16:46:41.372Z,9.67
2017-12-06T16:49:09.304Z,9.47
2017-12-06T16:51:37.248Z,9.00
2017-12-06T16:54:05.434Z,8.70
2017-12-06T16:56:33.484Z,8.03
2017-12-06T16:59:01.550Z,7.97
2017-12-06T17:01:29.455Z,9.13
2017-12-06T17:03:57.369Z,7.73
2017-12-06T17:06:25.590Z,8.00
2017-12-06T17:08:53.636Z,7.53
2017-12-06T17:11:21.523Z,9.37
2017-12-06T17:13:49.445Z,9.70
2017-12-06T17:16:17.613Z,9.60
2017-12-06T17:18:45.489Z,8.60
2017-12-06T17:21:13.389Z,9.80
2017-12-06T17:23:41.393Z,9.77
2017-12-06T17:26:09.537Z,8.70
2017-12-06T17:28:57.999Z,9.40
2017-12-06T17:31:31.940Z,10.20
2017-12-06T17:33:59.968Z,8.70
2017-12-06T17:36:27.944Z,8.10
2017-12-06T17:38:55.837Z,7.67
2017-12-06T17:41:23.728Z,8.43
2017-12-06T17:43:51.601Z,8.10
2017-12-06T17:46:19.582Z,7.70
2017-12-06T17:48:47.600Z,8.27
2017-12-06T17:51:15.563Z,10.50
2017-12-06T17:53:43.636Z,10.07
2017-12-06T17:56:12.278Z,10.10
2017-12-06T17:58:48.401Z,9.47
2017-12-06T18:01:34.993Z,9.33
2017-12-06T18:04:04.785Z,10.27
2017-12-06T18:06:32.746Z,10.43
2017-12-06T18:09:00.861Z,10.20
2017-12-06T18:11:28.798Z,9.50
2017-12-06T18:13:56.705Z,8.80
2017-12-06T18:16:24.639Z,11.43
2017-12-06T18:18:52.524Z,10.20
2017-12-06T18:21:20.491Z,8.83
2017-12-06T18:23:48.408Z,9.00
2017-12-06T18:26:16.426Z,8.57
2017-12-06T18:28:45.968Z,8.40
2017-12-06T18:31:13.937Z,7.70
2017-12-06T18:33:43.073Z,8.30
2017-12-06T18:36:10.992Z,14.33
2017-12-06T18:38:38.860Z,8.73
2017-12-06T18:41:08.641Z,10.27
2017-12-06T18:43:36.629Z,10.50
2017-12-06T18:46:04.549Z,9.17
2017-12-06T18:48:32.447Z,10.80
2017-12-06T18:51:00.965Z,11.10
2017-12-06T18:53:28.917Z,11.60
2017-12-06T18:55:56.764Z,16.13
2017-12-06T18:58:24.660Z,13.53
2017-12-06T19:00:52.586Z,11.40
2017-12-06T19:03:20.486Z,9.37
2017-12-06T19:05:48.560Z,9.00
2017-12-06T19:08:16.425Z,9.90
2017-12-06T19:10:44.319Z,7.43
2017-12-06T19:13:12.257Z,8.20
2017-12-06T19:15:40.145Z,10.90
2017-12-06T19:18:08.000Z,7.60
2017-12-06T19:20:36.146Z,8.27
2017-12-06T19:23:04.060Z,7.47
2017-12-06T19:25:31.962Z,8.67
2017-12-06T19:27:59.876Z,10.53
2017-12-06T19:30:27.788Z,8.43
2017-12-06T19:32:55.628Z,9.90
2017-12-06T19:35:23.508Z,9.10
2017-12-06T19:37:51.350Z,8.67
2017-12-06T19:40:19.213Z,10.87
2017-12-06T19:42:47.134Z,9.63
2017-12-06T19:45:15.600Z,10.57
2017-12-06T19:47:43.544Z,9.47
2017-12-06T19:50:11.480Z,9.07
2017-12-06T19:52:39.360Z,7.87
2017-12-06T19:55:07.265Z,9.00
2017-12-06T19:57:35.160Z,8.03
2017-12-06T20:00:03.040Z,12.67
2017-12-06T20:02:30.928Z,10.30
2017-12-06T20:04:58.927Z,7.03
2017-12-06T20:07:26.828Z,7.57
2017-12-06T20:09:54.702Z,8.40
2017-12-06T20:12:22.649Z,7.33
2017-12-06T20:14:50.521Z,8.97
2017-12-06T20:17:18.429Z,8.30
2017-12-06T20:19:46.382Z,8.17
2017-12-06T20:22:14.245Z,8.23
2017-12-06T20:24:42.147Z,8.30
2017-12-06T20:27:10.025Z,8.80
2017-12-06T20:29:37.937Z,8.60
2017-12-06T20:32:05.844Z,7.90
2017-12-06T20:34:33.798Z,8.90
2017-12-06T20:37:01.911Z,8.40
2017-12-06T20:39:29.826Z,8.77
2017-12-06T20:41:57.735Z,8.13
2017-12-06T20:44:25.727Z,8.47
2017-12-06T20:46:53.584Z,8.37
2017-12-06T20:49:22.728Z,10.17
2017-12-06T20:51:50.673Z,8.10
2017-12-06T20:54:18.552Z,8.00
2017-12-06T20:56:46.509Z,7.00
2017-12-06T20:59:14.399Z,10.03
2017-12-06T21:01:42.367Z,8.83
2017-12-06T21:04:10.453Z,8.10
2017-12-06T21:06:38.381Z,7.80
2017-12-06T21:09:06.464Z,8.10
2017-12-06T21:11:34.316Z,11.90
2017-12-06T21:14:02.671Z,7.73
2017-12-06T21:16:44.127Z,8.53
2017-12-06T21:19:11.982Z,6.80
2017-12-06T21:21:39.865Z,7.90
2017-12-06T21:24:07.752Z,7.63
2017-12-06T21:26:35.605Z,7.60
2017-12-06T21:29:03.521Z,6.90
2017-12-06T21:31:31.419Z,7.17
2017-12-06T21:33:59.282Z,7.80
2017-12-06T21:36:27.159Z,7.70
2017-12-06T21:38:55.016Z,8.27
2017-12-06T21:41:22.896Z,7.97
2017-12-06T21:43:50.832Z,9.43
2017-12-06T21:46:18.747Z,7.80
2017-12-06T21:48:47.616Z,8.13
2017-12-06T21:51:15.493Z,8.10
2017-12-06T21:53:43.423Z,8.80
2017-12-06T21:56:11.291Z,7.80
2017-12-06T21:58:39.164Z,9.00
2017-12-06T22:01:07.069Z,7.90
2017-12-06T22:03:34.931Z,8.63
2017-12-06T22:06:02.782Z,8.20
2017-12-06T22:08:30.661Z,7.30
2017-12-06T22:10:58.567Z,7.13
2017-12-06T22:13:26.561Z,7.10
2017-12-06T22:15:54.466Z,6.90
2017-12-06T22:18:22.313Z,6.07
2017-12-06T22:20:50.222Z,6.27
2017-12-06T22:23:18.192Z,7.43
2017-12-06T22:25:46.103Z,6.37
2017-12-06T22:28:13.964Z,6.90
2017-12-06T22:30:41.864Z,6.80
2017-12-06T22:33:09.716Z,7.10
2017-12-06T22:35:37.561Z,7.20
2017-12-06T22:38:05.436Z,7.17
2017-12-06T22:40:33.296Z,7.40
2017-12-06T22:43:01.166Z,7.17
2017-12-06T22:45:29.088Z,7.30
2017-12-06T22:47:56.979Z,8.17
2017-12-06T22:50:24.850Z,7.47
2017-12-06T22:52:52.760Z,6.53
2017-12-06T22:55:20.648Z,7.60
2017-12-06T22:57:48.555Z,7.57
2017-12-06T23:00:16.503Z,7.17
2017-12-06T23:02:44.386Z,6.73
2017-12-06T23:05:12.258Z,7.53
2017-12-06T23:07:40.153Z,8.00
2017-12-06T23:10:08.025Z,7.90
2017-12-06T23:12:35.916Z,7.73
2017-12-06T23:15:03.801Z,7.40
2017-12-06T23:17:31.667Z,8.87
2017-12-06T23:19:59.536Z,8.97
2017-12-06T23:22:27.443Z,9.50
2017-12-06T23:24:55.320Z,8.97
2017-12-06T23:27:23.353Z,8.43
2017-12-06T23:29:51.323Z,9.80
2017-12-06T23:32:19.199Z,10.30
2017-12-06T23:34:47.068Z,7.50
2017-12-06T23:37:14.973Z,9.70
2017-12-06T23:39:42.824Z,9.17
2017-12-06T23:42:10.665Z,11.47
2017-12-06T23:44:38.582Z,7.47
2017-12-06T23:47:06.436Z,8.73
2017-12-06T23:49:34.288Z,7.97
2017-12-06T23:52:02.201Z,7.40
2017-12-06T23:54:30.059Z,6.80
2017-12-06T23:56:57.935Z,6.80
2017-12-06T23:59:25.835Z,7.80
